sensor_id;sensor_type;location;lat;lon;timestamp;P1;durP1;ratioP1;P2;durP2;ratioP2
68593;SDS011;55563;52.416;13.548;2022-09-09T00:02:29;0.95;;;0.95;;
68593;SDS011;55563;52.416;13.548;2022-09-09T00:04:25;1.00;;;1.00;;
68593;SDS011;55563;52.416;13.548;2022-09-09T00:06:28;1.05;;;1.05;;
68593;SDS011;55563;52.416;13.548;2022-09-09T00:08:51;0.73;;;0.73;;
68593;SDS011;55563;52.416;13.548;2022-09-09T00:11:02;0.40;;;0.40;;
68593;SDS011;55563;52.416;13.548;2022-09-09T00:15:35;0.80;;;0.80;;
68593;SDS011;55563;52.416;13.548;2022-09-09T00:17:53;0.88;;;0.88;;
68593;SDS011;55563;52.416;13.548;2022-09-09T00:22:36;0.95;;;0.95;;
68593;SDS011;55563;52.416;13.548;2022-09-09T00:24:46;0.70;;;0.70;;
68593;SDS011;55563;52.416;13.548;2022-09-09T00:26:52;0.70;;;0.70;;
68593;SDS011;55563;52.416;13.548;2022-09-09T00:31:44;0.77;;;0.77;;
68593;SDS011;55563;52.416;13.548;2022-09-09T00:33:45;0.30;;;0.30;;
68593;SDS011;55563;52.416;13.548;2022-09-09T00:35:47;0.98;;;0.98;;
68593;SDS011;55563;52.416;13.548;2022-09-09T00:37:52;0.80;;;0.80;;
68593;SDS011;55563;52.416;13.548;2022-09-09T00:39:57;1.00;;;1.00;;
68593;SDS011;55563;52.416;13.548;2022-09-09T00:42:17;0.80;;;0.80;;
68593;SDS011;55563;52.416;13.548;2022-09-09T00:44:31;0.85;;;0.85;;
68593;SDS011;55563;52.416;13.548;2022-09-09T00:49:26;0.30;;;0.30;;
68593;SDS011;55563;52.416;13.548;2022-09-09T00:56:37;0.47;;;0.47;;
68593;SDS011;55563;52.416;13.548;2022-09-09T00:58:43;0.40;;;0.40;;
68593;SDS011;55563;52.416;13.548;2022-09-09T01:01:15;0.45;;;0.45;;
68593;SDS011;55563;52.416;13.548;2022-09-09T01:05:44;0.40;;;0.40;;
68593;SDS011;55563;52.416;13.548;2022-09-09T01:07:54;0.30;;;0.30;;
68593;SDS011;55563;52.416;13.548;2022-09-09T01:09:59;0.50;;;0.50;;
68593;SDS011;55563;52.416;13.548;2022-09-09T01:14:32;0.30;;;0.30;;
68593;SDS011;55563;52.416;13.548;2022-09-09T01:16:48;0.90;;;0.90;;
68593;SDS011;55563;52.416;13.548;2022-09-09T01:18:51;0.88;;;0.88;;
68593;SDS011;55563;52.416;13.548;2022-09-09T01:23:30;0.30;;;0.30;;
68593;SDS011;55563;52.416;13.548;2022-09-09T01:26:15;0.30;;;0.30;;
68593;SDS011;55563;52.416;13.548;2022-09-09T01:28:28;0.32;;;0.32;;
68593;SDS011;55563;52.416;13.548;2022-09-09T01:32:41;0.20;;;0.20;;
68593;SDS011;55563;52.416;13.548;2022-09-09T01:34:47;0.20;;;0.20;;
68593;SDS011;55563;52.416;13.548;2022-09-09T01:39:10;0.20;;;0.20;;
68593;SDS011;55563;52.416;13.548;2022-09-09T01:41:12;0.10;;;0.10;;
68593;SDS011;55563;52.416;13.548;2022-09-09T01:45:22;0.30;;;0.30;;
68593;SDS011;55563;52.416;13.548;2022-09-09T01:47:24;0.22;;;0.22;;
68593;SDS011;55563;52.416;13.548;2022-09-09T01:49:35;0.30;;;0.30;;
68593;SDS011;55563;52.416;13.548;2022-09-09T01:51:43;0.25;;;0.25;;
68593;SDS011;55563;52.416;13.548;2022-09-09T01:53:50;0.32;;;0.32;;
68593;SDS011;55563;52.416;13.548;2022-09-09T02:00:51;0.40;;;0.40;;
68593;SDS011;55563;52.416;13.548;2022-09-09T02:03:05;0.20;;;0.20;;
68593;SDS011;55563;52.416;13.548;2022-09-09T02:07:40;0.40;;;0.40;;
68593;SDS011;55563;52.416;13.548;2022-09-09T02:12:11;0.30;;;0.30;;
68593;SDS011;55563;52.416;13.548;2022-09-09T02:14:25;0.20;;;0.20;;
68593;SDS011;55563;52.416;13.548;2022-09-09T02:16:33;0.32;;;0.32;;
68593;SDS011;55563;52.416;13.548;2022-09-09T02:18:44;0.10;;;0.10;;
68593;SDS011;55563;52.416;13.548;2022-09-09T02:20:50;0.30;;;0.30;;
68593;SDS011;55563;52.416;13.548;2022-09-09T02:22:53;0.32;;;0.32;;
68593;SDS011;55563;52.416;13.548;2022-09-09T02:24:57;0.20;;;0.20;;
68593;SDS011;55563;52.416;13.548;2022-09-09T02:27:03;0.45;;;0.45;;
68593;SDS011;55563;52.416;13.548;2022-09-09T02:29:11;0.20;;;0.20;;
68593;SDS011;55563;52.416;13.548;2022-09-09T02:31:17;0.38;;;0.38;;
68593;SDS011;55563;52.416;13.548;2022-09-09T02:33:22;0.38;;;0.38;;
68593;SDS011;55563;52.416;13.548;2022-09-09T02:35:27;0.70;;;0.40;;
68593;SDS011;55563;52.416;13.548;2022-09-09T02:37:32;0.25;;;0.25;;
68593;SDS011;55563;52.416;13.548;2022-09-09T02:39:37;0.30;;;0.30;;
68593;SDS011;55563;52.416;13.548;2022-09-09T02:41:41;0.30;;;0.30;;
68593;SDS011;55563;52.416;13.548;2022-09-09T02:43:43;0.20;;;0.20;;
68593;SDS011;55563;52.416;13.548;2022-09-09T02:45:51;0.30;;;0.30;;
68593;SDS011;55563;52.416;13.548;2022-09-09T02:48:08;0.20;;;0.20;;
68593;SDS011;55563;52.416;13.548;2022-09-09T02:50:18;0.20;;;0.20;;
68593;SDS011;55563;52.416;13.548;2022-09-09T02:52:26;0.30;;;0.30;;
68593;SDS011;55563;52.416;13.548;2022-09-09T02:54:35;0.50;;;0.50;;
68593;SDS011;55563;52.416;13.548;2022-09-09T02:56:45;0.30;;;0.30;;
68593;SDS011;55563;52.416;13.548;2022-09-09T02:58:54;0.20;;;0.20;;
68593;SDS011;55563;52.416;13.548;2022-09-09T03:00:55;0.40;;;0.40;;
68593;SDS011;55563;52.416;13.548;2022-09-09T03:02:59;0.40;;;0.40;;
68593;SDS011;55563;52.416;13.548;2022-09-09T03:04:59;0.30;;;0.30;;
68593;SDS011;55563;52.416;13.548;2022-09-09T03:07:00;0.30;;;0.30;;
68593;SDS011;55563;52.416;13.548;2022-09-09T03:09:01;0.60;;;0.40;;
68593;SDS011;55563;52.416;13.548;2022-09-09T03:11:03;0.38;;;0.38;;
68593;SDS011;55563;52.416;13.548;2022-09-09T03:13:07;0.30;;;0.30;;
68593;SDS011;55563;52.416;13.548;2022-09-09T03:15:12;0.28;;;0.28;;
68593;SDS011;55563;52.416;13.548;2022-09-09T03:17:14;0.30;;;0.30;;
68593;SDS011;55563;52.416;13.548;2022-09-09T03:19:22;0.52;;;0.38;;
68593;SDS011;55563;52.416;13.548;2022-09-09T03:21:24;0.40;;;0.40;;
68593;SDS011;55563;52.416;13.548;2022-09-09T03:23:25;0.30;;;0.30;;
68593;SDS011;55563;52.416;13.548;2022-09-09T03:25:26;0.50;;;0.50;;
68593;SDS011;55563;52.416;13.548;2022-09-09T03:27:28;0.52;;;0.52;;
68593;SDS011;55563;52.416;13.548;2022-09-09T03:29:30;0.45;;;0.43;;
68593;SDS011;55563;52.416;13.548;2022-09-09T03:31:33;0.40;;;0.35;;
68593;SDS011;55563;52.416;13.548;2022-09-09T03:33:37;0.45;;;0.43;;
68593;SDS011;55563;52.416;13.548;2022-09-09T03:35:39;0.22;;;0.22;;
68593;SDS011;55563;52.416;13.548;2022-09-09T03:37:46;0.22;;;0.22;;
68593;SDS011;55563;52.416;13.548;2022-09-09T03:39:49;0.30;;;0.30;;
68593;SDS011;55563;52.416;13.548;2022-09-09T03:41:51;0.22;;;0.22;;
68593;SDS011;55563;52.416;13.548;2022-09-09T03:43:52;0.30;;;0.30;;
68593;SDS011;55563;52.416;13.548;2022-09-09T03:45:55;0.20;;;0.20;;
68593;SDS011;55563;52.416;13.548;2022-09-09T03:48:00;0.30;;;0.30;;
68593;SDS011;55563;52.416;13.548;2022-09-09T03:52:03;0.30;;;0.30;;
68593;SDS011;55563;52.416;13.548;2022-09-09T03:54:04;0.30;;;0.30;;
68593;SDS011;55563;52.416;13.548;2022-09-09T03:56:08;0.20;;;0.20;;
68593;SDS011;55563;52.416;13.548;2022-09-09T03:58:09;0.30;;;0.30;;
68593;SDS011;55563;52.416;13.548;2022-09-09T04:00:11;0.30;;;0.30;;
68593;SDS011;55563;52.416;13.548;2022-09-09T04:02:25;0.50;;;0.50;;
68593;SDS011;55563;52.416;13.548;2022-09-09T04:04:25;0.32;;;0.32;;
68593;SDS011;55563;52.416;13.548;2022-09-09T04:06:27;0.30;;;0.30;;
68593;SDS011;55563;52.416;13.548;2022-09-09T04:08:29;0.43;;;0.43;;
68593;SDS011;55563;52.416;13.548;2022-09-09T04:10:33;0.30;;;0.30;;
68593;SDS011;55563;52.416;13.548;2022-09-09T04:12:33;0.28;;;0.28;;
68593;SDS011;55563;52.416;13.548;2022-09-09T04:14:35;0.28;;;0.28;;
68593;SDS011;55563;52.416;13.548;2022-09-09T04:16:37;0.30;;;0.30;;
68593;SDS011;55563;52.416;13.548;2022-09-09T04:18:38;0.22;;;0.22;;
68593;SDS011;55563;52.416;13.548;2022-09-09T04:20:39;0.40;;;0.40;;
68593;SDS011;55563;52.416;13.548;2022-09-09T04:22:40;0.32;;;0.32;;
68593;SDS011;55563;52.416;13.548;2022-09-09T04:24:41;0.50;;;0.50;;
68593;SDS011;55563;52.416;13.548;2022-09-09T04:26:42;0.20;;;0.20;;
68593;SDS011;55563;52.416;13.548;2022-09-09T04:30:49;0.20;;;0.20;;
68593;SDS011;55563;52.416;13.548;2022-09-09T04:32:50;0.30;;;0.30;;
68593;SDS011;55563;52.416;13.548;2022-09-09T04:34:51;0.30;;;0.30;;
68593;SDS011;55563;52.416;13.548;2022-09-09T04:36:51;0.20;;;0.20;;
68593;SDS011;55563;52.416;13.548;2022-09-09T04:40:53;0.20;;;0.20;;
68593;SDS011;55563;52.416;13.548;2022-09-09T04:42:57;0.20;;;0.20;;
68593;SDS011;55563;52.416;13.548;2022-09-09T04:44:58;0.25;;;0.25;;
68593;SDS011;55563;52.416;13.548;2022-09-09T04:46:59;0.30;;;0.30;;
68593;SDS011;55563;52.416;13.548;2022-09-09T04:49:00;0.38;;;0.38;;
68593;SDS011;55563;52.416;13.548;2022-09-09T04:51:04;0.15;;;0.15;;
68593;SDS011;55563;52.416;13.548;2022-09-09T04:53:07;0.40;;;0.40;;
68593;SDS011;55563;52.416;13.548;2022-09-09T04:55:11;0.50;;;0.50;;
68593;SDS011;55563;52.416;13.548;2022-09-09T04:57:15;0.40;;;0.40;;
68593;SDS011;55563;52.416;13.548;2022-09-09T04:59:15;0.57;;;0.57;;
68593;SDS011;55563;52.416;13.548;2022-09-09T05:01:21;0.60;;;0.60;;
68593;SDS011;55563;52.416;13.548;2022-09-09T05:03:24;0.35;;;0.35;;
68593;SDS011;55563;52.416;13.548;2022-09-09T05:05:24;0.20;;;0.20;;
68593;SDS011;55563;52.416;13.548;2022-09-09T05:07:26;0.25;;;0.22;;
68593;SDS011;55563;52.416;13.548;2022-09-09T05:09:28;0.32;;;0.32;;
68593;SDS011;55563;52.416;13.548;2022-09-09T05:11:30;0.20;;;0.20;;
68593;SDS011;55563;52.416;13.548;2022-09-09T05:13:38;0.30;;;0.30;;
68593;SDS011;55563;52.416;13.548;2022-09-09T05:15:40;0.30;;;0.30;;
68593;SDS011;55563;52.416;13.548;2022-09-09T05:17:43;0.30;;;0.30;;
68593;SDS011;55563;52.416;13.548;2022-09-09T05:19:44;0.35;;;0.35;;
68593;SDS011;55563;52.416;13.548;2022-09-09T05:21:45;0.40;;;0.40;;
68593;SDS011;55563;52.416;13.548;2022-09-09T05:23:47;0.20;;;0.20;;
68593;SDS011;55563;52.416;13.548;2022-09-09T05:25:55;0.40;;;0.40;;
68593;SDS011;55563;52.416;13.548;2022-09-09T05:27:58;0.22;;;0.22;;
68593;SDS011;55563;52.416;13.548;2022-09-09T05:30:00;0.30;;;0.30;;
68593;SDS011;55563;52.416;13.548;2022-09-09T05:32:01;0.22;;;0.22;;
68593;SDS011;55563;52.416;13.548;2022-09-09T05:34:02;0.55;;;0.55;;
68593;SDS011;55563;52.416;13.548;2022-09-09T05:36:04;0.30;;;0.30;;
68593;SDS011;55563;52.416;13.548;2022-09-09T05:38:07;0.50;;;0.50;;
68593;SDS011;55563;52.416;13.548;2022-09-09T05:40:08;0.30;;;0.30;;
68593;SDS011;55563;52.416;13.548;2022-09-09T05:42:11;0.35;;;0.35;;
68593;SDS011;55563;52.416;13.548;2022-09-09T05:44:12;0.40;;;0.40;;
68593;SDS011;55563;52.416;13.548;2022-09-09T05:48:15;0.32;;;0.32;;
68593;SDS011;55563;52.416;13.548;2022-09-09T05:50:16;0.20;;;0.20;;
68593;SDS011;55563;52.416;13.548;2022-09-09T05:52:17;0.20;;;0.20;;
68593;SDS011;55563;52.416;13.548;2022-09-09T05:54:18;0.22;;;0.22;;
68593;SDS011;55563;52.416;13.548;2022-09-09T05:56:23;0.20;;;0.20;;
68593;SDS011;55563;52.416;13.548;2022-09-09T05:58:26;0.32;;;0.30;;
68593;SDS011;55563;52.416;13.548;2022-09-09T06:00:27;0.28;;;0.28;;
68593;SDS011;55563;52.416;13.548;2022-09-09T06:02:27;0.30;;;0.30;;
68593;SDS011;55563;52.416;13.548;2022-09-09T06:04:28;0.30;;;0.30;;
68593;SDS011;55563;52.416;13.548;2022-09-09T06:06:31;0.35;;;0.35;;
68593;SDS011;55563;52.416;13.548;2022-09-09T06:08:39;0.30;;;0.30;;
68593;SDS011;55563;52.416;13.548;2022-09-09T06:10:44;0.30;;;0.30;;
68593;SDS011;55563;52.416;13.548;2022-09-09T06:12:45;0.80;;;0.52;;
68593;SDS011;55563;52.416;13.548;2022-09-09T06:14:46;0.50;;;0.50;;
68593;SDS011;55563;52.416;13.548;2022-09-09T06:16:47;0.20;;;0.20;;
68593;SDS011;55563;52.416;13.548;2022-09-09T06:18:53;0.20;;;0.20;;
68593;SDS011;55563;52.416;13.548;2022-09-09T06:20:56;0.30;;;0.28;;
68593;SDS011;55563;52.416;13.548;2022-09-09T06:22:58;0.30;;;0.30;;
68593;SDS011;55563;52.416;13.548;2022-09-09T06:24:58;0.20;;;0.20;;
68593;SDS011;55563;52.416;13.548;2022-09-09T06:27:02;0.30;;;0.30;;
68593;SDS011;55563;52.416;13.548;2022-09-09T06:29:07;0.40;;;0.40;;
68593;SDS011;55563;52.416;13.548;2022-09-09T06:31:09;0.20;;;0.20;;
68593;SDS011;55563;52.416;13.548;2022-09-09T06:33:12;0.30;;;0.30;;
68593;SDS011;55563;52.416;13.548;2022-09-09T06:37:13;0.28;;;0.20;;
68593;SDS011;55563;52.416;13.548;2022-09-09T06:39:20;0.20;;;0.20;;
68593;SDS011;55563;52.416;13.548;2022-09-09T06:43:23;0.28;;;0.28;;
68593;SDS011;55563;52.416;13.548;2022-09-09T06:45:25;0.57;;;0.32;;
68593;SDS011;55563;52.416;13.548;2022-09-09T06:47:29;0.22;;;0.22;;
68593;SDS011;55563;52.416;13.548;2022-09-09T06:49:32;0.50;;;0.38;;
68593;SDS011;55563;52.416;13.548;2022-09-09T06:53:37;0.30;;;0.30;;
68593;SDS011;55563;52.416;13.548;2022-09-09T06:55:39;0.40;;;0.40;;
68593;SDS011;55563;52.416;13.548;2022-09-09T06:57:42;0.30;;;0.30;;
68593;SDS011;55563;52.416;13.548;2022-09-09T06:59:49;0.50;;;0.50;;
68593;SDS011;55563;52.416;13.548;2022-09-09T07:01:50;0.30;;;0.30;;
68593;SDS011;55563;52.416;13.548;2022-09-09T07:03:53;0.30;;;0.30;;
68593;SDS011;55563;52.416;13.548;2022-09-09T07:05:55;0.20;;;0.20;;
68593;SDS011;55563;52.416;13.548;2022-09-09T07:07:57;0.70;;;0.70;;
68593;SDS011;55563;52.416;13.548;2022-09-09T07:09:59;2.60;;;0.35;;
68593;SDS011;55563;52.416;13.548;2022-09-09T07:12:01;0.30;;;0.30;;
68593;SDS011;55563;52.416;13.548;2022-09-09T07:14:05;0.55;;;0.55;;
68593;SDS011;55563;52.416;13.548;2022-09-09T07:16:07;0.40;;;0.40;;
68593;SDS011;55563;52.416;13.548;2022-09-09T07:18:09;0.60;;;0.55;;
68593;SDS011;55563;52.416;13.548;2022-09-09T07:20:10;0.60;;;0.60;;
68593;SDS011;55563;52.416;13.548;2022-09-09T07:22:12;0.40;;;0.40;;
68593;SDS011;55563;52.416;13.548;2022-09-09T07:24:14;0.40;;;0.40;;
68593;SDS011;55563;52.416;13.548;2022-09-09T07:26:17;0.30;;;0.30;;
68593;SDS011;55563;52.416;13.548;2022-09-09T07:28:20;0.30;;;0.30;;
68593;SDS011;55563;52.416;13.548;2022-09-09T07:30:23;0.32;;;0.32;;
68593;SDS011;55563;52.416;13.548;2022-09-09T07:32:24;0.22;;;0.22;;
68593;SDS011;55563;52.416;13.548;2022-09-09T07:34:25;0.32;;;0.32;;
68593;SDS011;55563;52.416;13.548;2022-09-09T07:36:27;0.50;;;0.50;;
68593;SDS011;55563;52.416;13.548;2022-09-09T07:38:31;0.22;;;0.22;;
68593;SDS011;55563;52.416;13.548;2022-09-09T07:42:34;0.40;;;0.40;;
68593;SDS011;55563;52.416;13.548;2022-09-09T07:44:37;0.30;;;0.30;;
68593;SDS011;55563;52.416;13.548;2022-09-09T07:46:44;0.30;;;0.30;;
68593;SDS011;55563;52.416;13.548;2022-09-09T07:48:50;0.70;;;0.70;;
68593;SDS011;55563;52.416;13.548;2022-09-09T07:51:15;0.40;;;0.40;;
68593;SDS011;55563;52.416;13.548;2022-09-09T07:53:18;0.40;;;0.40;;
68593;SDS011;55563;52.416;13.548;2022-09-09T07:55:21;0.57;;;0.57;;
68593;SDS011;55563;52.416;13.548;2022-09-09T07:57:25;0.60;;;0.60;;
68593;SDS011;55563;52.416;13.548;2022-09-09T07:59:28;0.32;;;0.32;;
68593;SDS011;55563;52.416;13.548;2022-09-09T08:01:32;0.30;;;0.30;;
68593;SDS011;55563;52.416;13.548;2022-09-09T08:03:38;0.20;;;0.20;;
68593;SDS011;55563;52.416;13.548;2022-09-09T08:05:39;0.38;;;0.38;;
68593;SDS011;55563;52.416;13.548;2022-09-09T08:09:40;0.30;;;0.30;;
68593;SDS011;55563;52.416;13.548;2022-09-09T08:11:47;0.20;;;0.20;;
68593;SDS011;55563;52.416;13.548;2022-09-09T08:13:49;0.30;;;0.30;;
68593;SDS011;55563;52.416;13.548;2022-09-09T08:15:51;0.30;;;0.30;;
68593;SDS011;55563;52.416;13.548;2022-09-09T08:17:53;0.50;;;0.50;;
68593;SDS011;55563;52.416;13.548;2022-09-09T08:21:57;0.40;;;0.40;;
68593;SDS011;55563;52.416;13.548;2022-09-09T08:23:59;0.30;;;0.30;;
68593;SDS011;55563;52.416;13.548;2022-09-09T08:26:03;0.20;;;0.20;;
68593;SDS011;55563;52.416;13.548;2022-09-09T08:28:05;0.30;;;0.30;;
68593;SDS011;55563;52.416;13.548;2022-09-09T08:32:08;0.32;;;0.32;;
68593;SDS011;55563;52.416;13.548;2022-09-09T08:34:11;0.32;;;0.32;;
68593;SDS011;55563;52.416;13.548;2022-09-09T08:36:13;0.38;;;0.38;;
68593;SDS011;55563;52.416;13.548;2022-09-09T08:38:16;0.40;;;0.40;;
68593;SDS011;55563;52.416;13.548;2022-09-09T08:42:38;0.30;;;0.30;;
68593;SDS011;55563;52.416;13.548;2022-09-09T08:44:55;0.40;;;0.40;;
68593;SDS011;55563;52.416;13.548;2022-09-09T08:47:20;0.40;;;0.40;;
68593;SDS011;55563;52.416;13.548;2022-09-09T08:49:38;0.30;;;0.30;;
68593;SDS011;55563;52.416;13.548;2022-09-09T08:52:01;0.30;;;0.30;;
68593;SDS011;55563;52.416;13.548;2022-09-09T08:54:07;0.45;;;0.45;;
68593;SDS011;55563;52.416;13.548;2022-09-09T08:56:11;0.28;;;0.28;;
68593;SDS011;55563;52.416;13.548;2022-09-09T08:58:21;0.40;;;0.40;;
68593;SDS011;55563;52.416;13.548;2022-09-09T09:00:30;0.40;;;0.40;;
68593;SDS011;55563;52.416;13.548;2022-09-09T09:02:53;0.30;;;0.30;;
68593;SDS011;55563;52.416;13.548;2022-09-09T09:05:19;0.30;;;0.30;;
68593;SDS011;55563;52.416;13.548;2022-09-09T09:10:14;0.40;;;0.40;;
68593;SDS011;55563;52.416;13.548;2022-09-09T09:12:27;0.85;;;0.85;;
68593;SDS011;55563;52.416;13.548;2022-09-09T09:14:34;0.40;;;0.40;;
68593;SDS011;55563;52.416;13.548;2022-09-09T09:16:48;0.40;;;0.40;;
68593;SDS011;55563;52.416;13.548;2022-09-09T09:18:55;0.50;;;0.50;;
68593;SDS011;55563;52.416;13.548;2022-09-09T09:21:00;0.40;;;0.40;;
68593;SDS011;55563;52.416;13.548;2022-09-09T09:23:16;0.28;;;0.28;;
68593;SDS011;55563;52.416;13.548;2022-09-09T09:25:26;0.25;;;0.25;;
68593;SDS011;55563;52.416;13.548;2022-09-09T09:27:36;0.30;;;0.30;;
68593;SDS011;55563;52.416;13.548;2022-09-09T09:29:47;0.65;;;0.60;;
68593;SDS011;55563;52.416;13.548;2022-09-09T09:31:51;0.30;;;0.30;;
68593;SDS011;55563;52.416;13.548;2022-09-09T09:33:58;0.25;;;0.25;;
68593;SDS011;55563;52.416;13.548;2022-09-09T09:36:02;0.50;;;0.50;;
68593;SDS011;55563;52.416;13.548;2022-09-09T09:38:11;0.40;;;0.40;;
68593;SDS011;55563;52.416;13.548;2022-09-09T09:40:27;0.35;;;0.35;;
68593;SDS011;55563;52.416;13.548;2022-09-09T09:44:31;0.32;;;0.32;;
68593;SDS011;55563;52.416;13.548;2022-09-09T09:46:42;0.52;;;0.52;;
68593;SDS011;55563;52.416;13.548;2022-09-09T09:48:55;0.43;;;0.43;;
68593;SDS011;55563;52.416;13.548;2022-09-09T09:50:58;0.20;;;0.20;;
68593;SDS011;55563;52.416;13.548;2022-09-09T09:53:03;0.32;;;0.32;;
68593;SDS011;55563;52.416;13.548;2022-09-09T09:55:12;0.30;;;0.30;;
68593;SDS011;55563;52.416;13.548;2022-09-09T09:57:15;0.52;;;0.52;;
68593;SDS011;55563;52.416;13.548;2022-09-09T09:59:32;0.50;;;0.50;;
68593;SDS011;55563;52.416;13.548;2022-09-09T10:01:35;0.75;;;0.50;;
68593;SDS011;55563;52.416;13.548;2022-09-09T10:03:40;0.45;;;0.45;;
68593;SDS011;55563;52.416;13.548;2022-09-09T10:05:53;0.43;;;0.43;;
68593;SDS011;55563;52.416;13.548;2022-09-09T10:08:00;0.28;;;0.28;;
68593;SDS011;55563;52.416;13.548;2022-09-09T10:10:13;0.52;;;0.52;;
68593;SDS011;55563;52.416;13.548;2022-09-09T10:16:59;0.40;;;0.40;;
68593;SDS011;55563;52.416;13.548;2022-09-09T10:19:29;0.50;;;0.50;;
68593;SDS011;55563;52.416;13.548;2022-09-09T10:26:49;0.57;;;0.57;;
68593;SDS011;55563;52.416;13.548;2022-09-09T10:29:17;0.55;;;0.55;;
68593;SDS011;55563;52.416;13.548;2022-09-09T10:31:42;1.90;;;0.60;;
68593;SDS011;55563;52.416;13.548;2022-09-09T10:36:43;0.52;;;0.52;;
68593;SDS011;55563;52.416;13.548;2022-09-09T10:38:53;0.22;;;0.22;;
68593;SDS011;55563;52.416;13.548;2022-09-09T10:41:13;0.85;;;0.60;;
68593;SDS011;55563;52.416;13.548;2022-09-09T10:43:23;0.32;;;0.32;;
68593;SDS011;55563;52.416;13.548;2022-09-09T10:48:18;0.25;;;0.25;;
68593;SDS011;55563;52.416;13.548;2022-09-09T10:50:50;0.32;;;0.32;;
68593;SDS011;55563;52.416;13.548;2022-09-09T10:53:33;0.43;;;0.43;;
68593;SDS011;55563;52.416;13.548;2022-09-09T10:55:32;0.35;;;0.35;;
68593;SDS011;55563;52.416;13.548;2022-09-09T10:57:40;0.82;;;0.82;;
68593;SDS011;55563;52.416;13.548;2022-09-09T10:59:46;0.80;;;0.65;;
68593;SDS011;55563;52.416;13.548;2022-09-09T11:01:55;0.52;;;0.52;;
68593;SDS011;55563;52.416;13.548;2022-09-09T11:04:21;0.43;;;0.43;;
68593;SDS011;55563;52.416;13.548;2022-09-09T11:06:28;0.45;;;0.45;;
68593;SDS011;55563;52.416;13.548;2022-09-09T11:08:34;0.22;;;0.22;;
68593;SDS011;55563;52.416;13.548;2022-09-09T11:10:48;0.32;;;0.32;;
68593;SDS011;55563;52.416;13.548;2022-09-09T11:12:59;0.38;;;0.38;;
68593;SDS011;55563;52.416;13.548;2022-09-09T11:15:06;0.38;;;0.38;;
68593;SDS011;55563;52.416;13.548;2022-09-09T11:17:15;0.80;;;0.80;;
68593;SDS011;55563;52.416;13.548;2022-09-09T11:19:28;0.40;;;0.40;;
68593;SDS011;55563;52.416;13.548;2022-09-09T11:23:39;0.40;;;0.40;;
68593;SDS011;55563;52.416;13.548;2022-09-09T11:25:48;0.43;;;0.43;;
68593;SDS011;55563;52.416;13.548;2022-09-09T11:33:54;0.90;;;0.90;;
68593;SDS011;55563;52.416;13.548;2022-09-09T11:40:55;0.50;;;0.50;;
68593;SDS011;55563;52.416;13.548;2022-09-09T11:43:31;0.28;;;0.28;;
68593;SDS011;55563;52.416;13.548;2022-09-09T11:45:24;0.30;;;0.30;;
68593;SDS011;55563;52.416;13.548;2022-09-09T11:47:29;0.28;;;0.28;;
68593;SDS011;55563;52.416;13.548;2022-09-09T11:49:40;0.43;;;0.43;;
68593;SDS011;55563;52.416;13.548;2022-09-09T11:51:42;0.22;;;0.22;;
68593;SDS011;55563;52.416;13.548;2022-09-09T11:53:51;0.30;;;0.30;;
68593;SDS011;55563;52.416;13.548;2022-09-09T11:56:01;0.40;;;0.40;;
68593;SDS011;55563;52.416;13.548;2022-09-09T11:58:06;0.22;;;0.22;;
68593;SDS011;55563;52.416;13.548;2022-09-09T12:00:48;0.43;;;0.40;;
68593;SDS011;55563;52.416;13.548;2022-09-09T12:02:50;0.30;;;0.30;;
68593;SDS011;55563;52.416;13.548;2022-09-09T12:05:22;0.40;;;0.40;;
68593;SDS011;55563;52.416;13.548;2022-09-09T12:07:22;0.30;;;0.30;;
68593;SDS011;55563;52.416;13.548;2022-09-09T12:09:48;0.80;;;0.80;;
68593;SDS011;55563;52.416;13.548;2022-09-09T12:16:55;0.30;;;0.30;;
68593;SDS011;55563;52.416;13.548;2022-09-09T12:21:29;0.95;;;0.95;;
68593;SDS011;55563;52.416;13.548;2022-09-09T12:23:45;1.02;;;1.02;;
68593;SDS011;55563;52.416;13.548;2022-09-09T12:28:41;0.75;;;0.75;;
68593;SDS011;55563;52.416;13.548;2022-09-09T12:31:07;0.95;;;0.95;;
68593;SDS011;55563;52.416;13.548;2022-09-09T12:33:18;0.90;;;0.90;;
68593;SDS011;55563;52.416;13.548;2022-09-09T12:35:20;0.90;;;0.90;;
68593;SDS011;55563;52.416;13.548;2022-09-09T12:37:29;0.93;;;0.93;;
68593;SDS011;55563;52.416;13.548;2022-09-09T12:39:37;0.82;;;0.82;;
68593;SDS011;55563;52.416;13.548;2022-09-09T12:41:50;0.90;;;0.90;;
68593;SDS011;55563;52.416;13.548;2022-09-09T12:44:05;1.52;;;0.98;;
68593;SDS011;55563;52.416;13.548;2022-09-09T12:46:11;1.20;;;1.20;;
68593;SDS011;55563;52.416;13.548;2022-09-09T12:48:21;0.73;;;0.73;;
68593;SDS011;55563;52.416;13.548;2022-09-09T12:50:29;0.65;;;0.65;;
68593;SDS011;55563;52.416;13.548;2022-09-09T12:52:32;0.95;;;0.95;;
68593;SDS011;55563;52.416;13.548;2022-09-09T12:54:37;1.25;;;1.15;;
68593;SDS011;55563;52.416;13.548;2022-09-09T12:56:38;1.42;;;1.33;;
68593;SDS011;55563;52.416;13.548;2022-09-09T12:58:39;0.90;;;0.90;;
68593;SDS011;55563;52.416;13.548;2022-09-09T13:00:49;0.90;;;0.90;;
68593;SDS011;55563;52.416;13.548;2022-09-09T13:02:53;1.25;;;1.17;;
68593;SDS011;55563;52.416;13.548;2022-09-09T13:05:05;0.90;;;0.90;;
68593;SDS011;55563;52.416;13.548;2022-09-09T13:07:07;0.70;;;0.70;;
68593;SDS011;55563;52.416;13.548;2022-09-09T13:09:10;0.80;;;0.80;;
68593;SDS011;55563;52.416;13.548;2022-09-09T13:11:12;0.75;;;0.75;;
68593;SDS011;55563;52.416;13.548;2022-09-09T13:13:19;1.08;;;1.08;;
68593;SDS011;55563;52.416;13.548;2022-09-09T13:15:23;1.00;;;1.00;;
68593;SDS011;55563;52.416;13.548;2022-09-09T13:17:27;0.95;;;0.95;;
68593;SDS011;55563;52.416;13.548;2022-09-09T13:19:29;0.82;;;0.82;;
68593;SDS011;55563;52.416;13.548;2022-09-09T13:21:35;0.93;;;0.93;;
68593;SDS011;55563;52.416;13.548;2022-09-09T13:23:38;0.70;;;0.70;;
68593;SDS011;55563;52.416;13.548;2022-09-09T13:25:39;0.98;;;0.98;;
68593;SDS011;55563;52.416;13.548;2022-09-09T13:27:41;0.90;;;0.90;;
68593;SDS011;55563;52.416;13.548;2022-09-09T13:29:51;0.85;;;0.85;;
68593;SDS011;55563;52.416;13.548;2022-09-09T13:32:04;0.93;;;0.93;;
68593;SDS011;55563;52.416;13.548;2022-09-09T13:34:14;0.95;;;0.95;;
68593;SDS011;55563;52.416;13.548;2022-09-09T13:36:30;0.82;;;0.82;;
68593;SDS011;55563;52.416;13.548;2022-09-09T13:38:38;0.95;;;0.95;;
68593;SDS011;55563;52.416;13.548;2022-09-09T13:40:56;1.08;;;1.08;;
68593;SDS011;55563;52.416;13.548;2022-09-09T13:43:02;0.82;;;0.82;;
68593;SDS011;55563;52.416;13.548;2022-09-09T13:45:03;0.80;;;0.80;;
68593;SDS011;55563;52.416;13.548;2022-09-09T13:47:05;0.90;;;0.90;;
68593;SDS011;55563;52.416;13.548;2022-09-09T13:49:19;1.15;;;1.15;;
68593;SDS011;55563;52.416;13.548;2022-09-09T13:51:28;2.28;;;1.52;;
68593;SDS011;55563;52.416;13.548;2022-09-09T13:53:37;0.88;;;0.88;;
68593;SDS011;55563;52.416;13.548;2022-09-09T13:55:37;0.88;;;0.88;;
68593;SDS011;55563;52.416;13.548;2022-09-09T13:57:39;1.17;;;1.17;;
68593;SDS011;55563;52.416;13.548;2022-09-09T13:59:54;1.50;;;1.42;;
68593;SDS011;55563;52.416;13.548;2022-09-09T14:01:55;0.80;;;0.80;;
68593;SDS011;55563;52.416;13.548;2022-09-09T14:03:56;0.90;;;0.90;;
68593;SDS011;55563;52.416;13.548;2022-09-09T14:05:57;1.38;;;0.93;;
68593;SDS011;55563;52.416;13.548;2022-09-09T14:07:58;0.90;;;0.90;;
68593;SDS011;55563;52.416;13.548;2022-09-09T14:10:00;0.35;;;0.35;;
68593;SDS011;55563;52.416;13.548;2022-09-09T14:12:01;1.10;;;1.10;;
68593;SDS011;55563;52.416;13.548;2022-09-09T14:14:02;0.85;;;0.85;;
68593;SDS011;55563;52.416;13.548;2022-09-09T14:16:03;0.38;;;0.38;;
68593;SDS011;55563;52.416;13.548;2022-09-09T14:18:03;1.05;;;1.05;;